Time;durP1;ratioP1;P1;durP2;ratioP2;P2;SDS_P1;SDS_P2;PMS_P1;PMS_P2;Temp;Humidity;BMP_temperature;BMP_pressure;BME280_temperature;BME280_humidity;BME280_pressure;Samples;Min_cycle;Max_cycle;Signal;HPM_P1;HPM_P2
2022/04/03 00:02:15;;;;;;;5.15;2.45;;;;;;;-1.88;71.52;102260.06;5027254;28;20590;-89
2022/04/03 00:04:40;;;;;;;4.15;2.15;;;;;;;-1.91;71.60;102261.84;5027910;28;20152;-88
2022/04/03 00:07:05;;;;;;;5.38;2.72;;;;;;;-1.92;71.28;102258.28;5025747;28;20029;-91
2022/04/03 00:09:31;;;;;;;6.22;2.25;;;;;;;-1.97;71.50;102253.84;5023916;28;20052;-90
2022/04/03 00:11:56;;;;;;;3.83;2.65;;;;;;;-2.00;71.95;102257.41;5042016;28;20044;-89
2022/04/03 00:14:22;;;;;;;6.97;2.85;;;;;;;-2.00;71.81;102252.06;5022160;28;20395;-90
2022/04/03 00:16:49;;;;;;;7.22;2.60;;;;;;;-2.01;71.71;102252.94;5025221;28;20113;-86
2022/04/03 00:19:14;;;;;;;4.07;2.55;;;;;;;-2.02;71.40;102255.59;5033706;28;20462;-87
2022/04/03 00:21:40;;;;;;;6.00;2.70;;;;;;;-2.07;71.69;102251.16;5038622;28;20037;-86
2022/04/03 00:24:05;;;;;;;3.90;2.28;;;;;;;-2.10;72.13;102248.50;5026414;28;20095;-87
2022/04/03 00:26:31;;;;;;;3.38;2.22;;;;;;;-2.09;72.21;102252.06;5035879;28;20437;-89
2022/04/03 00:28:57;;;;;;;2.60;2.28;;;;;;;-2.16;72.47;102248.47;5026105;28;20183;-88
2022/04/03 00:31:23;;;;;;;3.30;2.13;;;;;;;-2.17;72.33;102256.47;5045501;28;20128;-87
2022/04/03 00:33:48;;;;;;;3.35;2.08;;;;;;;-2.22;72.36;102247.56;5043974;28;20139;-87
2022/04/03 00:36:14;;;;;;;4.25;2.25;;;;;;;-2.24;72.65;102250.22;5030887;28;20471;-89
2022/04/03 00:38:40;;;;;;;4.35;2.55;;;;;;;-2.26;73.03;102251.09;5029384;28;20021;-89
2022/04/03 00:41:06;;;;;;;7.13;2.72;;;;;;;-2.29;73.35;102264.41;5041779;28;20106;-89
2022/04/03 00:43:32;;;;;;;5.40;2.63;;;;;;;-2.32;74.71;102266.19;5048764;28;20179;-86
2022/04/03 00:46:00;;;;;;;4.55;2.35;;;;;;;-2.37;74.75;102264.41;5033006;28;20121;-87
2022/04/03 00:48:26;;;;;;;3.17;2.05;;;;;;;-2.42;74.50;102258.19;5047560;28;20033;-89
2022/04/03 00:50:52;;;;;;;8.23;2.70;;;;;;;-2.43;74.61;102257.25;5048930;28;20265;-89
2022/04/03 00:53:18;;;;;;;4.60;2.67;;;;;;;-2.47;74.48;102254.56;5047410;28;20037;-89
2022/04/03 00:55:44;;;;;;;4.47;2.40;;;;;;;-2.52;74.15;102249.22;5040667;28;20124;-89
2022/04/03 00:58:10;;;;;;;5.30;2.42;;;;;;;-2.48;74.14;102269.66;5046358;28;20094;-87
2022/04/03 01:00:35;;;;;;;9.77;2.70;;;;;;;-2.53;73.91;102255.44;5049597;28;20361;-90
2022/04/03 01:03:02;;;;;;;4.13;2.75;;;;;;;-2.55;73.81;102249.22;5047575;28;20106;-87
2022/04/03 01:05:28;;;;;;;5.00;2.38;;;;;;;-2.57;74.34;102253.66;5027860;28;20502;-86
2022/04/03 01:07:53;;;;;;;4.78;3.20;;;;;;;-2.58;74.24;102255.41;5028045;28;20123;-89
2022/04/03 01:10:19;;;;;;;4.70;2.47;;;;;;;-2.61;74.54;102258.09;5048698;28;20132;-89
2022/04/03 01:12:47;;;;;;;4.65;2.88;;;;;;;-2.62;74.61;102253.63;5025201;28;20451;-87
2022/04/03 01:15:17;;;;;;;5.07;2.85;;;;;;;-2.64;74.77;102254.53;5021267;28;20549;-89
2022/04/03 01:17:43;;;;;;;7.70;2.65;;;;;;;-2.66;74.93;102257.19;5029914;28;20128;-87
2022/04/03 01:20:09;;;;;;;4.53;2.53;;;;;;;-2.71;74.62;102244.72;5047948;28;20447;-89
2022/04/03 01:22:35;;;;;;;4.40;2.60;;;;;;;-2.72;75.25;102248.25;5031647;28;20029;-85
2022/04/03 01:25:00;;;;;;;4.80;2.90;;;;;;;-2.77;75.15;102253.56;5048719;28;20033;-87
2022/04/03 01:27:26;;;;;;;3.03;2.22;;;;;;;-2.78;75.63;102250.91;5032286;28;20036;-86
2022/04/03 01:29:52;;;;;;;4.97;2.17;;;;;;;-2.78;75.76;102256.22;5031962;28;20037;-88
2022/04/03 01:32:19;;;;;;;6.68;2.45;;;;;;;-2.79;75.75;102255.34;5029045;28;20534;-89
2022/04/03 01:34:45;;;;;;;4.68;2.42;;;;;;;-2.84;75.91;102243.78;5047141;28;20083;-89
2022/04/03 01:37:10;;;;;;;5.72;3.08;;;;;;;-2.86;76.11;102249.06;5047768;28;20434;-87
2022/04/03 01:39:36;;;;;;;6.32;3.20;;;;;;;-2.89;76.10;102251.75;5047768;28;20076;-89
2022/04/03 01:42:01;;;;;;;4.70;2.40;;;;;;;-2.92;77.11;102240.19;5045485;28;20021;-89
2022/04/03 01:44:27;;;;;;;6.35;2.72;;;;;;;-2.95;76.91;102235.72;5029660;28;20041;-86
2022/04/03 01:46:52;;;;;;;5.88;2.60;;;;;;;-2.95;76.82;102234.81;5042302;28;20116;-89
2022/04/03 01:49:18;;;;;;;5.22;3.00;;;;;;;-2.96;76.37;102241.03;5036017;28;20104;-89
2022/04/03 01:51:43;;;;;;;5.40;2.88;;;;;;;-2.98;77.03;102241.03;5042379;28;20037;-87
2022/04/03 01:54:09;;;;;;;7.15;2.72;;;;;;;-3.01;76.59;102241.00;5032165;28;20099;-86
2022/04/03 01:56:34;;;;;;;3.92;2.50;;;;;;;-3.02;76.48;102233.03;5031477;28;20029;-86
2022/04/03 01:59:02;;;;;;;3.85;2.85;;;;;;;-3.04;76.51;102233.00;5027195;28;20083;-88
2022/04/03 02:01:30;;;;;;;4.65;2.65;;;;;;;-3.03;77.11;102234.81;5041085;28;20404;-87
2022/04/03 02:03:55;;;;;;;7.78;3.05;;;;;;;-3.07;77.76;102235.66;5026656;28;20208;-86
2022/04/03 02:06:20;;;;;;;6.10;2.92;;;;;;;-3.11;77.38;102231.19;5045132;28;20119;-88
2022/04/03 02:08:46;;;;;;;8.43;3.25;;;;;;;-3.14;77.89;102228.50;5030673;28;20425;-86
2022/04/03 02:11:11;;;;;;;3.55;2.70;;;;;;;-3.11;77.73;102239.19;5047899;28;20040;-87
2022/04/03 02:13:36;;;;;;;7.50;3.83;;;;;;;-3.15;78.28;102238.25;5048107;28;20069;-86
2022/04/03 02:16:02;;;;;;;5.20;2.72;;;;;;;-3.16;77.58;102240.94;5027368;28;20557;-87
2022/04/03 02:18:28;;;;;;;7.70;3.15;;;;;;;-3.20;77.70;102233.78;5029081;28;20376;-89
2022/04/03 02:20:53;;;;;;;4.03;2.95;;;;;;;-3.18;78.21;102240.00;5043530;28;20047;-86
2022/04/03 02:23:18;;;;;;;5.03;2.85;;;;;;;-3.20;78.21;102225.81;5045433;28;20071;-87
2022/04/03 02:25:45;;;;;;;8.80;2.63;;;;;;;-3.23;78.32;102229.34;5044241;28;20041;-87
2022/04/03 02:28:12;;;;;;;6.32;2.92;;;;;;;-3.23;79.36;102226.66;5041884;28;20037;-87
2022/04/03 02:30:37;;;;;;;4.65;2.45;;;;;;;-3.24;78.18;102232.88;5030214;28;20052;-86
2022/04/03 02:33:02;;;;;;;4.85;2.67;;;;;;;-3.25;77.59;102230.22;5045798;28;20171;-88
2022/04/03 02:35:28;;;;;;;4.63;2.78;;;;;;;-3.31;78.06;102225.75;5025003;28;20025;-87
2022/04/03 02:37:53;;;;;;;4.88;3.05;;;;;;;-3.31;78.85;102228.41;5025862;28;20472;-87
2022/04/03 02:40:19;;;;;;;4.95;2.63;;;;;;;-3.33;78.45;102224.84;5024899;28;20634;-87
2022/04/03 02:42:45;;;;;;;5.68;3.53;;;;;;;-3.36;79.59;102227.47;5051165;28;20291;-88
2022/04/03 02:45:11;;;;;;;4.13;2.70;;;;;;;-3.42;78.79;102222.13;5040269;28;20124;-87
2022/04/03 02:47:37;;;;;;;8.15;3.00;;;;;;;-3.37;79.20;102228.34;5032398;28;20044;-88
2022/04/03 02:50:04;;;;;;;5.68;2.92;;;;;;;-3.39;79.52;102236.34;5033933;28;20053;-87
2022/04/03 02:52:30;;;;;;;4.72;3.03;;;;;;;-3.43;78.96;102234.53;5023293;28;20550;-87
2022/04/03 02:54:56;;;;;;;3.42;2.58;;;;;;;-3.47;78.55;102231.81;5021832;28;20064;-86
2022/04/03 02:57:22;;;;;;;5.88;2.50;;;;;;;-3.46;78.98;102236.25;5026226;28;20075;-86
2022/04/03 02:59:48;;;;;;;4.57;2.70;;;;;;;-3.49;78.32;102239.81;5043212;28;20041;-87
2022/04/03 03:02:13;;;;;;;4.03;2.72;;;;;;;-3.49;79.48;102236.25;5028474;28;20515;-88
2022/04/03 03:04:38;;;;;;;6.50;3.22;;;;;;;-3.50;78.48;102237.13;5041811;28;20077;-88
2022/04/03 03:07:05;;;;;;;5.05;3.17;;;;;;;-3.50;79.07;102239.78;5042937;28;20377;-87
2022/04/03 03:09:31;;;;;;;5.60;3.20;;;;;;;-3.55;78.68;102237.06;5046015;28;20057;-88
2022/04/03 03:11:56;;;;;;;5.43;3.00;;;;;;;-3.57;78.94;102240.63;5028833;28;20033;-88
2022/04/03 03:14:22;;;;;;;5.95;3.30;;;;;;;-3.57;79.54;102238.84;5029830;28;20385;-87
2022/04/03 03:16:48;;;;;;;4.65;3.22;;;;;;;-3.60;79.50;102237.03;5013317;28;20041;-87
2022/04/03 03:19:15;;;;;;;5.95;3.03;;;;;;;-3.56;78.88;102250.38;5044543;28;20121;-88
2022/04/03 03:21:42;;;;;;;6.68;3.33;;;;;;;-3.59;79.02;102245.94;5041719;28;20029;-87
2022/04/03 03:24:09;;;;;;;8.90;3.40;;;;;;;-3.57;79.43;102251.25;5030041;28;20040;-88
2022/04/03 03:26:35;;;;;;;6.18;2.97;;;;;;;-3.62;79.45;102251.22;5026341;28;20497;-87
2022/04/03 03:29:00;;;;;;;5.10;2.78;;;;;;;-3.64;79.40;102245.91;5037877;28;20180;-87
2022/04/03 03:31:25;;;;;;;5.72;2.92;;;;;;;-3.62;79.53;102259.19;5028081;28;20491;-87
2022/04/03 03:33:51;;;;;;;4.30;3.15;;;;;;;-3.70;79.76;102243.16;5026912;28;20026;-88
2022/04/03 03:36:16;;;;;;;5.72;3.22;;;;;;;-3.67;79.68;102245.84;5026627;28;20060;-87
2022/04/03 03:38:42;;;;;;;8.18;3.45;;;;;;;-3.69;80.09;102252.03;5045068;28;20033;-87
2022/04/03 03:41:09;;;;;;;5.93;2.80;;;;;;;-3.69;79.84;102246.72;5025741;28;20033;-88
2022/04/03 03:43:35;;;;;;;5.13;2.95;;;;;;;-3.69;79.95;102249.38;5033309;28;20101;-87
2022/04/03 03:46:01;;;;;;;7.82;2.85;;;;;;;-3.73;79.36;102247.56;5022956;28;20522;-88
2022/04/03 03:48:26;;;;;;;7.93;3.53;;;;;;;-3.72;80.08;102252.91;5029729;28;20112;-87
2022/04/03 03:50:52;;;;;;;5.57;3.53;;;;;;;-3.73;80.42;102252.88;5027743;28;20094;-87
2022/04/03 03:53:19;;;;;;;8.23;3.50;;;;;;;-3.77;80.25;102251.97;5028295;28;20376;-87
2022/04/03 03:55:45;;;;;;;6.88;3.03;;;;;;;-3.78;79.84;102247.50;5045818;28;20396;-87
2022/04/03 03:58:11;;;;;;;6.15;3.55;;;;;;;-3.78;80.22;102246.63;5031980;28;20020;-87
2022/04/03 04:00:37;;;;;;;4.85;2.58;;;;;;;-3.81;80.08;102249.28;5028809;28;20116;-88
2022/04/03 04:03:03;;;;;;;4.30;3.05;;;;;;;-3.83;79.71;102243.03;5041835;28;20111;-87
2022/04/03 04:05:28;;;;;;;5.07;2.95;;;;;;;-3.82;79.73;102252.78;5044171;28;20052;-87
2022/04/03 04:07:54;;;;;;;5.53;3.13;;;;;;;-3.82;80.47;102256.38;5038192;28;20120;-87
2022/04/03 04:10:19;;;;;;;7.63;3.72;;;;;;;-3.85;80.65;102251.00;5044674;28;20076;-87
2022/04/03 04:12:46;;;;;;;4.65;2.85;;;;;;;-3.87;80.13;102255.41;5027021;28;20038;-87
2022/04/03 04:15:12;;;;;;;3.47;2.65;;;;;;;-3.88;80.44;102251.84;5028978;28;20037;-87
2022/04/03 04:17:43;;;;;;;5.05;3.38;;;;;;;-3.92;80.51;102251.81;5039950;28;20041;-87
2022/04/03 04:20:12;;;;;;;10.05;3.30;;;;;;;-3.91;80.74;102258.94;5016750;28;20036;-87
2022/04/03 04:22:39;;;;;;;7.15;3.20;;;;;;;-3.94;80.76;102257.13;5028593;28;20106;-87
2022/04/03 04:25:05;;;;;;;5.97;3.65;;;;;;;-3.99;81.11;102253.53;5040218;28;20411;-86
2022/04/03 04:27:31;;;;;;;7.28;3.17;;;;;;;-4.02;81.21;102250.84;5009825;28;20059;-87
2022/04/03 04:29:56;;;;;;;4.95;3.42;;;;;;;-4.03;80.97;102254.38;5028146;28;20096;-87
2022/04/03 04:32:22;;;;;;;6.13;2.97;;;;;;;-4.04;80.77;102257.03;5014358;28;20128;-86
2022/04/03 04:34:51;;;;;;;6.50;3.15;;;;;;;-4.07;81.13;102268.50;5024750;28;20028;-87
2022/04/03 04:37:17;;;;;;;6.35;3.83;;;;;;;-4.09;81.32;102264.94;5024644;28;20045;-87
2022/04/03 04:39:43;;;;;;;3.63;2.50;;;;;;;-4.08;80.88;102265.84;5027281;28;20044;-87
2022/04/03 04:42:08;;;;;;;6.75;3.05;;;;;;;-4.11;81.04;102264.91;5029249;28;20025;-86
2022/04/03 04:44:33;;;;;;;5.90;2.85;;;;;;;-4.13;81.06;102258.72;5043874;28;20091;-87
2022/04/03 04:46:59;;;;;;;8.00;3.65;;;;;;;-4.12;81.41;102254.28;5040505;28;20120;-86
2022/04/03 04:49:25;;;;;;;10.52;3.58;;;;;;;-4.13;81.27;102258.72;5025420;28;20116;-87
2022/04/03 04:51:50;;;;;;;4.53;3.38;;;;;;;-4.16;81.08;102261.31;5024662;28;20079;-86
2022/04/03 04:54:15;;;;;;;7.78;3.17;;;;;;;-4.15;80.79;102264.88;5037279;28;20542;-87
2022/04/03 04:56:41;;;;;;;3.65;2.60;;;;;;;-4.16;81.16;102271.06;5022912;28;20445;-87
2022/04/03 04:59:06;;;;;;;7.45;3.35;;;;;;;-4.18;80.84;102276.38;5028812;28;20048;-87
2022/04/03 05:01:32;;;;;;;5.78;3.50;;;;;;;-4.18;80.79;102279.03;5027430;28;20334;-87
2022/04/03 05:03:57;;;;;;;6.00;3.03;;;;;;;-4.18;81.39;102280.78;5028745;28;20060;-87
2022/04/03 05:06:26;;;;;;;4.78;3.45;;;;;;;-4.18;81.90;102286.09;5027064;28;20067;-87
2022/04/03 05:08:51;;;;;;;4.82;3.25;;;;;;;-4.21;81.82;102288.72;5042431;28;20207;-87
2022/04/03 05:11:16;;;;;;;4.32;2.78;;;;;;;-4.26;81.19;102287.78;5025292;28;20037;-87
2022/04/03 05:13:42;;;;;;;6.63;3.10;;;;;;;-4.28;81.07;102285.13;5039079;28;20477;-87
2022/04/03 05:16:08;;;;;;;6.57;3.60;;;;;;;-4.24;80.81;102292.25;5028612;28;20041;-86
2022/04/03 05:18:37;;;;;;;4.38;2.95;;;;;;;-4.20;81.54;102291.38;5043111;28;20352;-86
2022/04/03 05:21:04;;;;;;;6.05;2.92;;;;;;;-4.19;81.44;102289.66;5023517;28;20072;-87
2022/04/03 05:23:30;;;;;;;5.07;3.05;;;;;;;-4.13;81.39;102295.03;5039217;28;20024;-86
2022/04/03 05:25:56;;;;;;;6.13;2.95;;;;;;;-4.11;81.72;102296.81;5034338;28;20127;-86
2022/04/03 05:28:21;;;;;;;6.65;3.25;;;;;;;-4.11;81.75;102294.16;5048322;28;20037;-87
2022/04/03 05:30:47;;;;;;;7.07;3.47;;;;;;;-4.04;81.62;102291.56;5031524;28;20143;-86
2022/04/03 05:33:14;;;;;;;5.63;3.75;;;;;;;-3.95;81.76;102297.00;5045858;28;20041;-87
2022/04/03 05:35:40;;;;;;;6.45;3.08;;;;;;;-3.92;82.07;102303.25;5030958;28;20056;-87
2022/04/03 05:38:05;;;;;;;7.90;3.40;;;;;;;-3.89;82.15;102300.59;5029405;28;20052;-86
2022/04/03 05:40:30;;;;;;;6.82;3.63;;;;;;;-3.82;82.20;102308.63;5031967;28;20097;-86
2022/04/03 05:42:56;;;;;;;11.15;3.38;;;;;;;-3.76;82.29;102306.03;5048232;28;20033;-85
2022/04/03 05:45:22;;;;;;;8.63;4.03;;;;;;;-3.65;81.88;102315.88;5026802;28;20426;-86
2022/04/03 05:47:48;;;;;;;6.80;3.95;;;;;;;-3.58;82.39;102316.84;5026592;28;20053;-87
2022/04/03 05:50:14;;;;;;;9.00;4.00;;;;;;;-3.53;82.14;102304.50;5027956;28;20067;-86
2022/04/03 05:52:44;;;;;;;10.73;4.00;;;;;;;-3.41;82.54;102314.34;5040339;28;20055;-87
2022/04/03 05:55:11;;;;;;;10.15;4.60;;;;;;;-3.32;82.31;102311.75;5018050;28;20120;-86
2022/04/03 05:57:37;;;;;;;6.03;4.00;;;;;;;-3.22;81.87;102315.38;5018060;28;20028;-87
2022/04/03 06:00:05;;;;;;;5.43;2.90;;;;;;;-3.14;81.81;102311.91;5029261;28;20159;-86
2022/04/03 06:02:48;;;;;;;6.75;3.45;;;;;;;-3.03;82.00;102311.06;5036688;28;20436;-86
2022/04/03 06:05:16;;;;;;;6.35;3.25;;;;;;;-2.90;81.96;102319.16;5029683;28;20055;-87
2022/04/03 06:07:41;;;;;;;9.55;3.75;;;;;;;-2.79;82.25;102318.38;5030373;28;20032;-86
2022/04/03 06:10:07;;;;;;;5.15;3.17;;;;;;;-2.71;81.42;102317.50;5028225;28;20404;-86
2022/04/03 06:12:34;;;;;;;9.85;3.47;;;;;;;-2.60;81.61;102326.47;5030745;28;20063;-87
2022/04/03 06:14:59;;;;;;;6.35;3.88;;;;;;;-2.54;80.81;102314.94;5047642;28;20041;-87
2022/04/03 06:17:25;;;;;;;7.47;3.45;;;;;;;-2.42;81.41;102323.00;5028435;28;20040;-86
2022/04/03 06:19:50;;;;;;;6.05;4.15;;;;;;;-2.33;81.10;102328.38;5025200;28;20062;-85
2022/04/03 06:22:15;;;;;;;6.80;4.07;;;;;;;-2.22;80.55;102316.88;5023852;28;20029;-86
2022/04/03 06:24:41;;;;;;;6.45;3.72;;;;;;;-2.13;80.70;102327.56;5037626;28;20033;-86
2022/04/03 06:27:06;;;;;;;6.13;3.92;;;;;;;-2.00;80.79;102329.41;5029534;28;20033;-87
2022/04/03 06:29:32;;;;;;;5.68;3.78;;;;;;;-1.89;80.14;102318.75;5043853;28;20133;-87
2022/04/03 06:31:57;;;;;;;6.53;3.60;;;;;;;-1.81;80.11;102317.88;5028464;28;20529;-86
2022/04/03 06:34:23;;;;;;;7.05;4.03;;;;;;;-1.71;80.24;102304.56;5044811;28;20112;-86
2022/04/03 06:36:49;;;;;;;7.40;3.90;;;;;;;-1.51;80.14;102313.47;5032656;28;20072;-87
2022/04/03 06:39:14;;;;;;;6.95;4.15;;;;;;;-1.32;79.69;102311.72;5046999;28;20223;-86
2022/04/03 06:41:40;;;;;;;6.30;4.15;;;;;;;-1.13;78.79;102316.16;5047873;28;20059;-87
2022/04/03 06:44:05;;;;;;;6.60;3.85;;;;;;;-0.85;78.70;102310.78;5046948;28;20348;-87
2022/04/03 06:46:31;;;;;;;6.85;3.83;;;;;;;-0.55;77.54;102313.41;5029266;28;20079;-87
2022/04/03 06:48:57;;;;;;;5.82;3.78;;;;;;;-0.50;76.63;102313.38;5032635;28;20072;-87
2022/04/03 06:51:22;;;;;;;8.13;3.55;;;;;;;-0.37;77.15;102306.22;5027529;28;20516;-87
2022/04/03 06:53:48;;;;;;;4.72;3.50;;;;;;;-0.24;76.00;102315.94;5026193;28;20123;-87
2022/04/03 06:56:14;;;;;;;4.65;3.60;;;;;;;-0.01;78.01;102319.41;5051933;28;20502;-87
2022/04/03 06:58:39;;;;;;;6.03;3.80;;;;;;;0.60;75.78;102319.91;5041027;28;20044;-87
2022/04/03 07:01:05;;;;;;;5.00;3.20;;;;;;;1.07;73.11;102313.25;5028977;28;20037;-87
2022/04/03 07:03:32;;;;;;;5.75;3.72;;;;;;;1.36;72.15;102323.72;5028468;28;20029;-88
2022/04/03 07:05:58;;;;;;;6.43;3.53;;;;;;;1.56;73.04;102313.66;5042071;28;20026;-87
2022/04/03 07:08:24;;;;;;;7.03;3.92;;;;;;;2.28;71.94;102312.69;5025572;28;20079;-86
2022/04/03 07:10:50;;;;;;;7.90;3.70;;;;;;;3.13;68.02;102305.06;5041900;28;20461;-88
2022/04/03 07:13:15;;;;;;;8.02;4.80;;;;;;;3.61;66.42;102323.88;5010456;28;20066;-89
2022/04/03 07:15:41;;;;;;;7.60;4.97;;;;;;;4.34;65.96;102311.53;5028906;28;20067;-87
2022/04/03 07:18:07;;;;;;;8.98;4.88;;;;;;;5.76;62.67;102306.94;5042017;28;20381;-86
2022/04/03 07:20:33;;;;;;;6.72;4.68;;;;;;;7.01;58.63;102312.06;5028978;28;20033;-87
2022/04/03 07:22:58;;;;;;;8.75;5.38;;;;;;;7.70;55.56;102305.09;5046006;28;20029;-88
2022/04/03 07:25:24;;;;;;;8.13;4.65;;;;;;;8.06;54.67;102304.63;5032786;28;20116;-89
2022/04/03 07:27:49;;;;;;;8.48;4.95;;;;;;;8.05;54.78;102308.28;5029267;28;20025;-88
2022/04/03 07:30:15;;;;;;;9.82;5.22;;;;;;;7.75;54.39;102308.50;5043692;28;20060;-86
2022/04/03 07:32:40;;;;;;;7.55;4.80;;;;;;;7.40;55.92;102313.38;5045981;28;20409;-85
2022/04/03 07:35:07;;;;;;;6.70;4.82;;;;;;;7.14;56.40;102318.84;5028788;28;20051;-86
2022/04/03 07:37:33;;;;;;;8.90;4.15;;;;;;;7.02;57.77;102319.22;5025582;28;20107;-87
2022/04/03 07:39:59;;;;;;;6.43;4.75;;;;;;;6.64;58.83;102321.41;5045248;28;20178;-89
2022/04/03 07:42:24;;;;;;;6.72;4.85;;;;;;;6.73;58.98;102318.38;5028703;28;20032;-88
2022/04/03 07:44:49;;;;;;;7.90;4.20;;;;;;;6.94;57.66;102319.47;5009534;28;20037;-88
2022/04/03 07:47:15;;;;;;;6.30;4.15;;;;;;;7.35;57.76;102315.34;5018018;28;20029;-87
2022/04/03 07:49:41;;;;;;;5.20;4.00;;;;;;;7.73;56.57;102325.75;5025906;28;20041;-87
2022/04/03 07:52:06;;;;;;;8.13;4.55;;;;;;;7.70;56.44;102323.16;5042315;28;20022;-86
2022/04/03 07:54:32;;;;;;;5.53;3.65;;;;;;;7.47;58.25;102316.75;5042434;28;20052;-87
2022/04/03 07:56:58;;;;;;;3.78;3.38;;;;;;;7.32;59.15;102312.78;5028962;28;20029;-87
2022/04/03 07:59:23;;;;;;;8.73;3.78;;;;;;;7.18;58.21;102317.78;5025805;28;20045;-87
2022/04/03 08:01:48;;;;;;;6.85;4.00;;;;;;;7.29;59.41;102328.22;5034317;28;20403;-89
2022/04/03 08:04:14;;;;;;;4.95;3.22;;;;;;;7.24;57.50;102311.28;5041576;28;20041;-89
2022/04/03 08:06:39;;;;;;;6.18;3.40;;;;;;;7.43;58.85;102315.09;5026590;28;20037;-87
2022/04/03 08:09:07;;;;;;;6.50;4.22;;;;;;;7.38;57.38;102311.66;5029301;28;20067;-86
2022/04/03 08:11:33;;;;;;;5.15;2.88;;;;;;;7.34;57.83;102332.53;5032603;28;20053;-89
2022/04/03 08:13:58;;;;;;;3.65;2.58;;;;;;;7.35;57.68;102328.88;5045244;28;20044;-90
2022/04/03 08:16:24;;;;;;;4.70;2.67;;;;;;;7.60;58.08;102322.59;5045813;28;20240;-89
2022/04/03 08:18:49;;;;;;;4.70;3.08;;;;;;;7.66;56.90;102319.69;5027997;28;20029;-89
2022/04/03 08:21:15;;;;;;;4.50;2.33;;;;;;;7.82;55.21;102336.25;5026771;28;20037;-91
2022/04/03 08:23:40;;;;;;;3.35;2.67;;;;;;;7.91;56.92;102325.94;5026569;28;20028;-88
2022/04/03 08:26:06;;;;;;;2.80;2.30;;;;;;;7.95;55.27;102324.00;5040523;28;20488;-88
2022/04/03 08:28:31;;;;;;;5.40;2.28;;;;;;;8.32;55.88;102326.19;5028617;28;20502;-90
2022/04/03 08:30:57;;;;;;;3.97;2.35;;;;;;;8.47;52.77;102331.97;5045695;28;20036;-88
2022/04/03 08:33:22;;;;;;;4.20;2.90;;;;;;;8.40;53.83;102332.22;5017589;28;20017;-86
2022/04/03 08:35:50;;;;;;;3.67;2.17;;;;;;;8.38;55.17;102331.38;5026549;28;20480;-89
2022/04/03 08:38:16;;;;;;;4.35;2.28;;;;;;;8.44;53.37;102322.16;5040563;28;20074;-90
2022/04/03 08:40:43;;;;;;;4.00;2.30;;;;;;;8.17;52.31;102321.38;5032482;28;20041;-89
2022/04/03 08:43:08;;;;;;;4.75;2.63;;;;;;;8.33;55.71;102324.34;5029760;28;20039;-87
2022/04/03 08:45:33;;;;;;;4.60;2.30;;;;;;;8.33;52.21;102335.19;5030005;28;20116;-87
2022/04/03 08:48:01;;;;;;;5.20;2.88;;;;;;;7.71;52.13;102333.94;5036577;28;20154;-90
2022/04/03 08:50:33;;;;;;;4.78;2.20;;;;;;;7.34;54.08;102327.13;5035144;28;20036;-89
2022/04/03 08:53:01;;;;;;;3.87;2.73;;;;;;;7.59;57.38;102329.84;5041830;28;20487;-88
2022/04/03 08:55:27;;;;;;;2.35;1.75;;;;;;;7.85;54.54;102333.44;5025486;28;20484;-87
2022/04/03 08:57:53;;;;;;;3.03;1.90;;;;;;;7.81;53.54;102334.47;5033354;28;20040;-87
2022/04/03 09:00:20;;;;;;;6.93;1.98;;;;;;;8.07;55.73;102319.97;5050194;28;20033;-85
2022/04/03 09:02:46;;;;;;;4.80;1.80;;;;;;;8.25;53.57;102331.91;5041683;28;20083;-89
2022/04/03 09:05:12;;;;;;;5.53;1.70;;;;;;;8.57;52.47;102333.38;5019804;28;20036;-89
2022/04/03 09:07:37;;;;;;;3.58;1.70;;;;;;;8.90;52.91;102329.28;5050187;28;20403;-92
2022/04/03 09:10:16;;;;;;;2.90;1.88;;;;;;;9.64;53.33;102335.13;5049905;28;20045;-89
2022/04/03 09:12:50;;;;;;;2.78;1.70;;;;;;;9.86;49.88;102323.31;5039922;28;20051;-88
2022/04/03 09:15:18;;;;;;;3.53;1.40;;;;;;;9.96;50.11;102330.94;5044822;28;20048;-89
2022/04/03 09:17:49;;;;;;;5.50;1.83;;;;;;;10.29;48.32;102324.94;5042366;28;20044;-93
2022/04/03 09:20:18;;;;;;;1.77;1.13;;;;;;;9.87;44.20;102325.94;5036263;28;20049;-89
2022/04/03 09:22:45;;;;;;;3.80;1.27;;;;;;;9.66;49.25;102324.22;5035318;28;20082;-88
2022/04/03 09:25:16;;;;;;;4.20;1.75;;;;;;;9.44;48.97;102319.72;5049933;28;20064;-89
2022/04/03 09:27:46;;;;;;;2.17;1.40;;;;;;;9.18;46.88;102330.81;5034569;28;20439;-86
2022/04/03 09:30:11;;;;;;;2.03;1.30;;;;;;;8.97;47.25;102315.47;5029933;28;20402;-91
2022/04/03 09:32:52;;;;;;;3.45;1.67;;;;;;;9.00;52.12;102312.59;5042172;28;20047;-90
2022/04/03 09:35:19;;;;;;;2.58;1.40;;;;;;;9.26;49.64;102317.81;5034851;28;20079;-87
2022/04/03 09:38:10;;;;;;;4.15;1.40;;;;;;;9.48;51.53;102323.19;5050517;28;20024;-89
2022/04/03 09:40:41;;;;;;;4.82;1.48;;;;;;;9.53;46.25;102310.28;5035533;28;20036;-92
2022/04/03 09:43:27;;;;;;;3.53;1.45;;;;;;;9.80;51.19;102315.44;5051733;28;20427;-88
2022/04/03 09:45:58;;;;;;;4.13;1.70;;;;;;;10.11;49.45;102306.72;5050254;28;20029;-89
2022/04/03 09:48:28;;;;;;;4.82;1.67;;;;;;;10.21;47.87;102308.03;5036986;28;20032;-91
2022/04/03 09:50:54;;;;;;;2.30;1.45;;;;;;;10.25;48.66;102295.22;5050930;28;20048;-91
2022/04/03 09:53:19;;;;;;;2.00;1.60;;;;;;;10.40;47.42;102295.38;5032240;28;20033;-89
2022/04/03 09:55:45;;;;;;;2.22;1.60;;;;;;;10.33;46.93;102295.75;5049244;28;20498;-89
2022/04/03 09:58:12;;;;;;;1.92;1.38;;;;;;;10.46;44.49;102292.34;5051429;28;20140;-89
2022/04/03 10:00:41;;;;;;;2.47;1.65;;;;;;;10.63;46.26;102288.81;5059008;28;20029;-93
2022/04/03 10:03:11;;;;;;;4.05;1.65;;;;;;;10.84;46.76;102286.84;5045273;28;20017;-89
2022/04/03 10:05:37;;;;;;;3.33;2.17;;;;;;;11.04;44.72;102287.66;5044064;28;20056;-89
2022/04/03 10:08:05;;;;;;;3.08;1.65;;;;;;;10.86;44.85;102284.03;5045112;28;20037;-86
2022/04/03 10:10:34;;;;;;;1.67;0.95;;;;;;;10.15;40.98;102273.88;5049247;28;20040;-87
2022/04/03 10:13:00;;;;;;;4.35;0.80;;;;;;;9.61;43.92;102278.22;5065455;28;20075;-94
2022/04/03 10:15:27;;;;;;;1.20;1.05;;;;;;;9.43;44.40;102279.94;5053910;28;20032;-90
2022/04/03 10:17:53;;;;;;;2.33;1.20;;;;;;;9.34;46.20;102282.19;5026465;28;20061;-88
2022/04/03 10:20:18;;;;;;;2.25;1.00;;;;;;;9.74;45.52;102281.25;5031808;28;20037;-92
2022/04/03 10:22:48;;;;;;;1.33;0.85;;;;;;;10.17;47.34;102257.50;5040883;28;20032;-89
2022/04/03 10:25:19;;;;;;;1.85;1.52;;;;;;;10.45;43.94;102274.28;5032848;28;20115;-87
2022/04/03 10:27:47;;;;;;;6.13;1.35;;;;;;;10.48;44.02;102263.22;5031511;28;20025;-90
2022/04/03 10:30:16;;;;;;;2.38;0.93;;;;;;;10.89;43.60;102265.72;5026560;28;20488;-89
2022/04/03 10:32:56;;;;;;;4.25;1.20;;;;;;;11.16;44.83;102257.97;5045987;28;20049;-89
2022/04/03 10:35:22;;;;;;;3.60;1.15;;;;;;;10.68;41.37;102251.38;5030149;28;20039;-87
2022/04/03 10:37:59;;;;;;;2.47;1.10;;;;;;;10.37;44.18;102268.31;5040900;28;20093;-93
2022/04/03 10:40:29;;;;;;;2.55;1.10;;;;;;;10.01;43.01;102268.22;5049142;28;20277;-92
2022/04/03 10:43:02;;;;;;;1.98;1.17;;;;;;;9.81;45.34;102263.72;5033541;28;20062;-87
2022/04/03 10:45:37;;;;;;;10.88;4.32;;;;;;;9.80;44.72;102255.66;5062704;28;20058;-90
2022/04/03 10:48:20;;;;;;;1.67;1.17;;;;;;;9.63;44.23;102260.00;5052107;28;20048;-92
2022/04/03 10:51:07;;;;;;;1.73;1.20;;;;;;;9.63;46.09;102261.84;5046977;28;20029;-86
2022/04/03 10:53:48;;;;;;;2.33;1.38;;;;;;;9.61;45.22;102252.91;5047561;28;20084;-92
2022/04/03 10:56:23;;;;;;;1.90;1.33;;;;;;;9.44;45.97;102243.66;5040566;28;20104;-85
2022/04/03 10:58:50;;;;;;;1.70;1.20;;;;;;;9.64;47.00;102250.00;5049489;28;20039;-89
2022/04/03 11:01:24;;;;;;;2.15;1.50;;;;;;;9.93;46.66;102246.84;5046076;28;20036;-89
2022/04/03 11:03:57;;;;;;;1.67;1.25;;;;;;;10.06;45.28;102248.97;5046630;28;20143;-88
2022/04/03 11:06:28;;;;;;;3.75;1.38;;;;;;;10.04;46.11;102240.00;5048181;28;20127;-89
2022/04/03 11:08:55;;;;;;;1.80;1.30;;;;;;;10.02;44.72;102242.78;5047866;28;20052;-89
2022/04/03 11:11:43;;;;;;;2.33;1.55;;;;;;;10.18;46.77;102245.66;5030012;28;20800;-87
2022/04/03 11:14:10;;;;;;;4.03;1.27;;;;;;;10.19;43.20;102242.84;5030760;28;20044;-88
2022/04/03 11:16:58;;;;;;;2.58;1.10;;;;;;;10.02;43.78;102239.19;5045615;28;20176;-92
2022/04/03 11:19:34;;;;;;;2.45;1.17;;;;;;;9.92;46.64;102242.34;5011213;28;20399;-89
2022/04/03 11:22:00;;;;;;;2.97;1.20;;;;;;;10.00;45.58;102239.25;5028572;28;20029;-88
2022/04/03 11:24:27;;;;;;;2.17;1.35;;;;;;;9.96;45.33;102234.91;5025887;28;20040;-91
2022/04/03 11:26:52;;;;;;;2.25;1.40;;;;;;;9.74;43.25;102226.00;5025957;28;20033;-90